Inspiration — C6FM5 — position and weather

sailwx.info

Track history (hours):
 
Tides and Currents Weather Stations Pressure Air Temp Water Temp Dewpoint Dewpoint Depression Visibility Wind Speed Wind Dir Waves Ship Positions

Inspiration

Operator: Carnival Cruise Lines

Last reported at 2018-May-24 12:00 UTC. Time now 2018-May-24 13:58 UTC.
Position N 31°24' W 117°48'.

Type: Ship. MMSI: 309484000.

Wind from 290 at 10 knots

Barometer 1017.2 mb
Air temperature 16.0 ° C
Visibility: greater than 10.8 NM
Dewpoint 12.7 ° C
Water temperature 16.5 ° C

Date/timePositionNaut miles runAvg speedWind from/ knotsBaromVisibWave heightAir tempDewpointWater temp
2018-May-24 12:00N 31°24' W 117°48'12 4.0 290 / 101017.210.8 16.012.716.5
2018-May-24 09:00N 31°36' W 117°48'11 5.2 030 / 41020.310.8 16.012.716.0
2018-May-24 06:48N 31°46' W 117°41'3024160.8
2018-May-23 12:00N 31°54' W 177°00'30391519.7 150 / 81017.210.8 16.012.716.9
2018-May-23 10:00N 32°00' W 117°18'26 8.5 180 / 41017.210.8 16.012.717.0
2018-May-23 06:54N 32°19' W 117°39'410.5
2018-May-23 06:30N 32°23' W 117°41'510.5
2018-May-23 06:00N 32°28' W 117°44'510.7
2018-May-23 05:30N 32°32' W 117°47'510.9
2018-May-23 05:00N 32°37' W 117°50'510.5
2018-May-23 04:30N 32°42' W 117°53'510.2
2018-May-23 04:00N 32°47' W 117°55'510.4
2018-May-23 03:30N 32°51' W 117°58'510.6
2018-May-23 03:00N 32°56' W 118°01'510.3
2018-May-23 02:30N 33°00' W 118°04'510.3
2018-May-23 01:59N 33°05' W 118°07'14 1.1
2018-May-22 13:11N 33°17' W 118°16'3 7.7
2018-May-22 12:50N 33°14' W 118°15'6 8.4
2018-May-22 12:09N 33°09' W 118°14'320.7
2018-May-22 12:00N 33°06' W 118°12'2183.4 270 / 101017.210.8 16.012.716.5
2018-May-22 11:59N 33°07' W 118°13'11 8.1
2018-May-22 10:39N 32°59' W 118°05'1 7.5
2018-May-22 10:30N 32°58' W 118°05'4 7.9
2018-May-22 10:00N 32°54' W 118°03'5 7.7
2018-May-22 09:21N 32°50' W 118°01'2 6.7
2018-May-22 08:59N 32°48' W 117°59'3 6.9
2018-May-22 08:30N 32°49' W 117°55'3 6.0
2018-May-22 08:00N 32°52' W 117°55'3 6.5
2018-May-22 07:30N 32°55' W 117°56'3 6.9
2018-May-22 07:00N 32°58' W 117°57'4 7.3
2018-May-22 06:30N 33°01' W 117°59'4 7.4
2018-May-22 06:00N 33°05' W 118°00'4 7.5
2018-May-22 05:27N 33°09' W 118°02'410.0
2018-May-22 05:00N 33°13' W 118°04'510.0
2018-May-22 04:29N 33°18' W 118°06'11 9.9
2018-May-22 03:23N 33°28' W 118°10'4 9.9
2018-May-22 02:59N 33°32' W 118°12'5 9.8
2018-May-22 02:29N 33°37' W 118°13'5 9.8
2018-May-22 02:00N 33°41' W 118°12'4 7.6
2018-May-22 01:29N 33°45' W 118°11'0 0.1
2018-May-22 00:59N 33°45' W 118°11'0 0.0
2018-May-22 00:26N 33°45' W 118°11'512.2
2018-May-22 00:00N 33°42' W 118°06'5261.3 220 / 101017.210.8 16.014.416.5
2018-May-21 23:58N 33°45' W 118°11'0 0.0
2018-May-21 23:28N 33°45' W 118°11'0 0.0
2018-May-21 22:58N 33°45' W 118°11'0 0.0
2018-May-21 22:25N 33°45' W 118°11'0 0.0
2018-May-21 22:00N 33°45' W 118°11'0 0.0
2018-May-21 21:30N 33°45' W 118°11'0 0.0
2018-May-21 20:54N 33°45' W 118°11'0 0.0
2018-May-21 20:27N 33°45' W 118°11'0 0.0
2018-May-21 20:00N 33°45' W 118°11'0 0.0
2018-May-21 19:29N 33°45' W 118°11'0 0.0
2018-May-21 18:59N 33°45' W 118°11'0 0.0
2018-May-21 18:29N 33°45' W 118°11'0 0.0
2018-May-21 17:59N 33°45' W 118°11'0 0.0
2018-May-21 17:28N 33°45' W 118°11'0 0.0
2018-May-21 16:58N 33°45' W 118°11'0 0.0
2018-May-21 16:28N 33°45' W 118°11'0 0.0
2018-May-21 15:58N 33°45' W 118°11'0 0.0
2018-May-21 15:28N 33°45' W 118°11'0 0.0
2018-May-21 14:57N 33°45' W 118°11'0 0.0
2018-May-21 14:30N 33°45' W 118°11'0 0.0
2018-May-21 14:00N 33°45' W 118°11'0 0.0
2018-May-21 13:30N 33°45' W 118°11'0 0.0
2018-May-21 13:00N 33°45' W 118°11'56357.3
2018-May-21 13:00N 33°42' W 118°06'510.9 180 / 81017.210.8 16.014.416.5
2018-May-21 12:30N 33°45' W 118°11'1 2.2
2018-May-21 12:00N 33°44' W 118°11'4 8.1
2018-May-21 11:31N 33°40' W 118°11'510.9
2018-May-21 11:00N 33°35' W 118°09'1810.6
2018-May-21 09:18N 33°18' W 118°02'515.5
2018-May-21 09:00N 33°13' W 118°00'815.5
2018-May-21 08:30N 33°06' W 117°57'815.7
2018-May-21 08:01N 32°59' W 117°54'816.1
2018-May-21 07:30N 32°51' W 117°50'816.0
2018-May-21 07:00N 32°44' W 117°47'815.7
2018-May-21 06:30N 32°36' W 117°43'815.3
2018-May-21 06:00N 32°29' W 117°40'1115.1
2018-May-21 05:18N 32°20' W 117°35'5911.1
2018-May-21 00:00N 31°48' W 116°36'15 1.3 260 / 151018.310.8 17.015.416.5
2018-May-20 12:00N 31°48' W 116°54'57 2.4 290 / 131016.210.8 16.014.416.5
2018-May-19 12:00N 32°00' W 118°00'3011.2 300 / 201017.210.8 16.012.715.9
2018-May-19 09:18N 32°29' W 117°51'618.2
2018-May-19 09:00N 32°24' W 117°48'8275.6 290 / 41017.210.8 17.0
2018-May-19 08:58N 32°32' W 117°49'510.2
2018-May-19 08:30N 32°37' W 117°49'510.5
2018-May-19 08:00N 32°42' W 117°49'510.4
2018-May-19 07:30N 32°47' W 117°51'510.4
2018-May-19 07:00N 32°52' W 117°54'510.2
2018-May-19 06:30N 32°57' W 117°56'510.4
2018-May-19 06:00N 33°02' W 117°58'610.7
2018-May-19 05:29N 33°07' W 118°00'510.6
2018-May-19 05:00N 33°12' W 118°03'2110.7
2018-May-19 03:04N 33°31' W 118°11'110.6
2018-May-19 03:00N 33°32' W 118°12'510.4
2018-May-19 02:30N 33°37' W 118°13'510.0
2018-May-19 02:00N 33°42' W 118°11'3 6.6
2018-May-19 01:30N 33°45' W 118°11'0 0.2
2018-May-19 00:59N 33°45' W 118°11'0 0.0
2018-May-19 00:29N 33°45' W 118°11'510.7
2018-May-19 00:00N 33°42' W 118°06'5529.8 170 / 151017.210.8 21.018.016.0
2018-May-18 23:59N 33°45' W 118°11'0 0.0
2018-May-18 23:29N 33°45' W 118°11'0 0.0
2018-May-18 22:58N 33°45' W 118°11'0 0.0
2018-May-18 22:25N 33°45' W 118°11'0 0.0
2018-May-18 21:58N 33°45' W 118°11'0 0.0
2018-May-18 21:28N 33°45' W 118°11'0 0.0
2018-May-18 20:58N 33°45' W 118°11'0 0.0
2018-May-18 20:30N 33°45' W 118°11'0 0.0
2018-May-18 20:00N 33°45' W 118°11'0 0.0
2018-May-18 19:30N 33°45' W 118°11'0 0.0
2018-May-18 19:00N 33°45' W 118°11'0 0.0
2018-May-18 18:30N 33°45' W 118°11'0 0.0
2018-May-18 17:59N 33°45' W 118°11'0 0.0
2018-May-18 17:29N 33°45' W 118°11'0 0.0
2018-May-18 16:59N 33°45' W 118°11'0 0.0
2018-May-18 16:29N 33°45' W 118°11'0 0.0
2018-May-18 15:58N 33°45' W 118°11'0 0.0
2018-May-18 15:28N 33°45' W 118°11'0 0.0
2018-May-18 14:58N 33°45' W 118°11'0 0.0
2018-May-18 14:28N 33°45' W 118°11'511.3
2018-May-18 14:00N 33°42' W 118°06'513.8 170 / 51019.310.8 17.015.416.4
2018-May-18 13:36N 33°45' W 118°11'0 0.0
2018-May-18 13:30N 33°45' W 118°11'0 0.0
2018-May-18 13:00N 33°45' W 118°11'0 0.1
2018-May-18 12:30N 33°45' W 118°11'1 1.8
2018-May-18 12:00N 33°44' W 118°11'5 9.8
2018-May-18 11:31N 33°39' W 118°10'4 7.7
2018-May-18 11:01N 33°36' W 118°09'4 7.6
2018-May-18 10:30N 33°32' W 118°08'14 6.9
2018-May-18 08:33N 33°19' W 118°03'0 6.9
2018-May-18 08:30N 33°19' W 118°02'3 6.0
2018-May-18 08:00N 33°16' W 118°01'4 7.2
2018-May-18 07:30N 33°13' W 117°60'4 7.4
2018-May-18 07:00N 33°09' W 117°58'4 7.3
2018-May-18 06:29N 33°06' W 117°57'3 7.2
2018-May-18 06:00N 33°02' W 117°55'4 7.3
2018-May-18 05:30N 32°59' W 117°54'4 7.3
2018-May-18 05:00N 32°56' W 117°52'4 7.4
2018-May-18 04:30N 32°52' W 117°51'4 7.3
2018-May-18 04:00N 32°49' W 117°49'4 7.6
2018-May-18 03:30N 32°45' W 117°48'4 7.7
2018-May-18 03:00N 32°41' W 117°46'4 7.8
2018-May-18 02:30N 32°38' W 117°44'4 7.5
2018-May-18 02:00N 32°34' W 117°43'4 7.4
2018-May-18 01:30N 32°31' W 117°41'4 7.6
2018-May-18 01:00N 32°27' W 117°40'4 7.9
2018-May-18 00:30N 32°24' W 117°37'4 7.9
2018-May-18 00:00N 32°20' W 117°35'5535.3
2018-May-18 00:00N 32°18' W 117°30'52 4.3 270 / 221018.310.8 17.013.716.4
2018-May-17 12:00N 31°30' W 117°54'5 1.7 320 / 251018.310.8 16.012.716.7
2018-May-17 09:00N 31°30' W 117°48'54 7.7 330 / 251018.310.8 16.012.716.0
2018-May-17 02:00N 31°48' W 116°48'8 0.6 330 / 201018.310.8 17.015.415.0
2018-May-16 12:00N 31°54' W 116°54'21 7.1 310 / 101020.310.8 16.012.716.4
2018-May-16 09:00N 32°00' W 117°18'2112.8 310 / 161020.310.8 16.012.717.0
2018-May-16 07:22N 32°14' W 117°36'710.7
2018-May-16 06:45N 32°20' W 117°39'311.0
2018-May-16 06:30N 32°22' W 117°41'611.0
2018-May-16 06:00N 32°27' W 117°44'510.8
2018-May-16 05:30N 32°32' W 117°47'510.5
2018-May-16 05:00N 32°37' W 117°50'510.5
2018-May-16 04:30N 32°41' W 117°53'510.5
2018-May-16 04:00N 32°46' W 117°56'510.3
2018-May-16 03:30N 32°51' W 117°58'510.1
2018-May-16 03:00N 32°55' W 118°01'510.4
2018-May-16 02:29N 33°00' W 118°04'510.5
2018-May-16 02:00N 33°05' W 118°06'810.9
2018-May-16 01:16N 33°12' W 118°11'410.9
2018-May-16 00:53N 33°15' W 118°13'8 0.8
2018-May-15 15:37N 33°21' W 118°19'0 0.0
2018-May-15 15:30N 33°21' W 118°19'14 4.3
2018-May-15 12:09N 33°08' W 118°13'110.2
2018-May-15 12:01N 33°06' W 118°13'12733.9
2018-May-15 12:00N 33°00' W 118°00'5 4.9 300 / 151019.310.8 16.012.716.0
2018-May-15 11:03N 32°59' W 118°05'0 9.6
2018-May-15 11:00N 32°59' W 118°05'5 9.0
2018-May-15 10:30N 32°54' W 118°03'5 9.2
2018-May-15 09:57N 32°50' W 118°02'4 8.9
2018-May-15 09:31N 32°46' W 118°01'713.1
2018-May-15 09:00N 32°42' W 117°54'222.5 310 / 171019.310.8 15.011.616.0
2018-May-15 08:53N 32°43' W 117°57'3 7.1
2018-May-15 08:30N 32°45' W 117°54'4 7.3
2018-May-15 08:01N 32°49' W 117°54'4 7.2
2018-May-15 07:30N 32°52' W 117°55'4 7.2
2018-May-15 07:01N 32°56' W 117°56'4 7.3
2018-May-15 06:30N 32°59' W 117°58'4 7.2
2018-May-15 06:01N 33°03' W 117°59'4 7.1
2018-May-15 05:30N 33°06' W 118°01'4 7.3
2018-May-15 04:59N 33°09' W 118°02'510.5
2018-May-15 04:31N 33°14' W 118°04'1711.1
2018-May-15 02:56N 33°31' W 118°11'511.0
2018-May-15 02:30N 33°35' W 118°13'510.5
2018-May-15 02:00N 33°40' W 118°12'5 9.1
2018-May-15 01:30N 33°45' W 118°11'0 0.6
2018-May-15 00:57N 33°45' W 118°11'0 0.0
2018-May-15 00:30N 33°45' W 118°11'0 0.0
2018-May-15 00:00N 33°45' W 118°11'0 0.0
2018-May-14 23:29N 33°45' W 118°11'0 0.0
2018-May-14 22:59N 33°45' W 118°11'0 0.0
2018-May-14 22:29N 33°45' W 118°11'0 0.0
2018-May-14 21:59N 33°45' W 118°11'0 0.0
2018-May-14 21:28N 33°45' W 118°11'0 0.0
2018-May-14 20:58N 33°45' W 118°11'0 0.0
2018-May-14 16:20N 33°45' W 118°11'0 0.0
2018-May-14 14:56N 33°45' W 118°11'0 0.0
2018-May-14 14:28N 33°45' W 118°11'511.0
2018-May-14 14:00N 33°42' W 118°06'543.4 090 / 41018.310.8 16.014.416.4
2018-May-14 13:52N 33°45' W 118°11'0 0.0
2018-May-14 13:28N 33°45' W 118°11'0 0.0
2018-May-14 12:55N 33°45' W 118°11'0 0.2
2018-May-14 12:30N 33°45' W 118°11'1 1.6
2018-May-14 12:00N 33°44' W 118°11'  
Track history (hours):
 
Tides and Currents Weather Stations Pressure Air Temp Water Temp Dewpoint Dewpoint Depression Visibility Wind Speed Wind Dir Waves Ship Positions

Inspiration

Operator: Carnival Cruise Lines

Last reported at 2018-May-24 12:00 UTC. Time now 2018-May-24 13:58 UTC.
Position N 31°24' W 117°48'.

Type: Ship. MMSI: 309484000.

Wind from 290 at 10 knots

Barometer 1017.2 mb
Air temperature 16.0 ° C
Visibility: greater than 10.8 NM
Dewpoint 12.7 ° C
Water temperature 16.5 ° C

Date/timePositionNaut miles runAvg speedWind from/ knotsBaromVisibWave heightAir tempDewpointWater temp
2018-May-24 12:00N 31°24' W 117°48'12 4.0 290 / 101017.210.8 16.012.716.5
2018-May-24 09:00N 31°36' W 117°48'11 5.2 030 / 41020.310.8 16.012.716.0
2018-May-24 06:48N 31°46' W 117°41'3024160.8
2018-May-23 12:00N 31°54' W 177°00'30391519.7 150 / 81017.210.8 16.012.716.9
2018-May-23 10:00N 32°00' W 117°18'26 8.5 180 / 41017.210.8 16.012.717.0
2018-May-23 06:54N 32°19' W 117°39'410.5
2018-May-23 06:30N 32°23' W 117°41'510.5
2018-May-23 06:00N 32°28' W 117°44'510.7
2018-May-23 05:30N 32°32' W 117°47'510.9
2018-May-23 05:00N 32°37' W 117°50'510.5
2018-May-23 04:30N 32°42' W 117°53'510.2
2018-May-23 04:00N 32°47' W 117°55'510.4
2018-May-23 03:30N 32°51' W 117°58'510.6
2018-May-23 03:00N 32°56' W 118°01'510.3
2018-May-23 02:30N 33°00' W 118°04'510.3
2018-May-23 01:59N 33°05' W 118°07'14 1.1
2018-May-22 13:11N 33°17' W 118°16'3 7.7
2018-May-22 12:50N 33°14' W 118°15'6 8.4
2018-May-22 12:09N 33°09' W 118°14'320.7
2018-May-22 12:00N 33°06' W 118°12'2183.4 270 / 101017.210.8 16.012.716.5
2018-May-22 11:59N 33°07' W 118°13'11 8.1
2018-May-22 10:39N 32°59' W 118°05'1 7.5
2018-May-22 10:30N 32°58' W 118°05'4 7.9
2018-May-22 10:00N 32°54' W 118°03'5 7.7
2018-May-22 09:21N 32°50' W 118°01'2 6.7
2018-May-22 08:59N 32°48' W 117°59'3 6.9
2018-May-22 08:30N 32°49' W 117°55'3 6.0
2018-May-22 08:00N 32°52' W 117°55'3 6.5
2018-May-22 07:30N 32°55' W 117°56'3 6.9
2018-May-22 07:00N 32°58' W 117°57'4 7.3
2018-May-22 06:30N 33°01' W 117°59'4 7.4
2018-May-22 06:00N 33°05' W 118°00'4 7.5
2018-May-22 05:27N 33°09' W 118°02'410.0
2018-May-22 05:00N 33°13' W 118°04'510.0
2018-May-22 04:29N 33°18' W 118°06'11 9.9
2018-May-22 03:23N 33°28' W 118°10'4 9.9
2018-May-22 02:59N 33°32' W 118°12'5 9.8
2018-May-22 02:29N 33°37' W 118°13'5 9.8
2018-May-22 02:00N 33°41' W 118°12'4 7.6
2018-May-22 01:29N 33°45' W 118°11'0 0.1
2018-May-22 00:59N 33°45' W 118°11'0 0.0
2018-May-22 00:26N 33°45' W 118°11'512.2
2018-May-22 00:00N 33°42' W 118°06'5261.3 220 / 101017.210.8 16.014.416.5
2018-May-21 23:58N 33°45' W 118°11'0 0.0
2018-May-21 23:28N 33°45' W 118°11'0 0.0
2018-May-21 22:58N 33°45' W 118°11'0 0.0
2018-May-21 22:25N 33°45' W 118°11'0 0.0
2018-May-21 22:00N 33°45' W 118°11'0 0.0
2018-May-21 21:30N 33°45' W 118°11'0 0.0
2018-May-21 20:54N 33°45' W 118°11'0 0.0
2018-May-21 20:27N 33°45' W 118°11'0 0.0
2018-May-21 20:00N 33°45' W 118°11'0 0.0
2018-May-21 19:29N 33°45' W 118°11'0 0.0
2018-May-21 18:59N 33°45' W 118°11'0 0.0
2018-May-21 18:29N 33°45' W 118°11'0 0.0
2018-May-21 17:59N 33°45' W 118°11'0 0.0
2018-May-21 17:28N 33°45' W 118°11'0 0.0
2018-May-21 16:58N 33°45' W 118°11'0 0.0
2018-May-21 16:28N 33°45' W 118°11'0 0.0
2018-May-21 15:58N 33°45' W 118°11'0 0.0
2018-May-21 15:28N 33°45' W 118°11'0 0.0
2018-May-21 14:57N 33°45' W 118°11'0 0.0
2018-May-21 14:30N 33°45' W 118°11'0 0.0
2018-May-21 14:00N 33°45' W 118°11'0 0.0
2018-May-21 13:30N 33°45' W 118°11'0 0.0
2018-May-21 13:00N 33°45' W 118°11'56357.3
2018-May-21 13:00N 33°42' W 118°06'510.9 180 / 81017.210.8 16.014.416.5
2018-May-21 12:30N 33°45' W 118°11'1 2.2
2018-May-21 12:00N 33°44' W 118°11'4 8.1
2018-May-21 11:31N 33°40' W 118°11'510.9
2018-May-21 11:00N 33°35' W 118°09'1810.6
2018-May-21 09:18N 33°18' W 118°02'515.5
2018-May-21 09:00N 33°13' W 118°00'815.5
2018-May-21 08:30N 33°06' W 117°57'815.7
2018-May-21 08:01N 32°59' W 117°54'816.1
2018-May-21 07:30N 32°51' W 117°50'816.0
2018-May-21 07:00N 32°44' W 117°47'815.7
2018-May-21 06:30N 32°36' W 117°43'815.3
2018-May-21 06:00N 32°29' W 117°40'1115.1
2018-May-21 05:18N 32°20' W 117°35'5911.1
2018-May-21 00:00N 31°48' W 116°36'15 1.3 260 / 151018.310.8 17.015.416.5
2018-May-20 12:00N 31°48' W 116°54'57 2.4 290 / 131016.210.8 16.014.416.5
2018-May-19 12:00N 32°00' W 118°00'3011.2 300 / 201017.210.8 16.012.715.9
2018-May-19 09:18N 32°29' W 117°51'618.2
2018-May-19 09:00N 32°24' W 117°48'8275.6 290 / 41017.210.8 17.0
2018-May-19 08:58N 32°32' W 117°49'510.2
2018-May-19 08:30N 32°37' W 117°49'510.5
2018-May-19 08:00N 32°42' W 117°49'510.4
2018-May-19 07:30N 32°47' W 117°51'510.4
2018-May-19 07:00N 32°52' W 117°54'510.2
2018-May-19 06:30N 32°57' W 117°56'510.4
2018-May-19 06:00N 33°02' W 117°58'610.7
2018-May-19 05:29N 33°07' W 118°00'510.6
2018-May-19 05:00N 33°12' W 118°03'2110.7
2018-May-19 03:04N 33°31' W 118°11'110.6
2018-May-19 03:00N 33°32' W 118°12'510.4
2018-May-19 02:30N 33°37' W 118°13'510.0
2018-May-19 02:00N 33°42' W 118°11'3 6.6
2018-May-19 01:30N 33°45' W 118°11'0 0.2
2018-May-19 00:59N 33°45' W 118°11'0 0.0
2018-May-19 00:29N 33°45' W 118°11'510.7
2018-May-19 00:00N 33°42' W 118°06'5529.8 170 / 151017.210.8 21.018.016.0
2018-May-18 23:59N 33°45' W 118°11'0 0.0
2018-May-18 23:29N 33°45' W 118°11'0 0.0
2018-May-18 22:58N 33°45' W 118°11'0 0.0
2018-May-18 22:25N 33°45' W 118°11'0 0.0
2018-May-18 21:58N 33°45' W 118°11'0 0.0
2018-May-18 21:28N 33°45' W 118°11'0 0.0
2018-May-18 20:58N 33°45' W 118°11'0 0.0
2018-May-18 20:30N 33°45' W 118°11'0 0.0
2018-May-18 20:00N 33°45' W 118°11'0 0.0
2018-May-18 19:30N 33°45' W 118°11'0 0.0
2018-May-18 19:00N 33°45' W 118°11'0 0.0
2018-May-18 18:30N 33°45' W 118°11'0 0.0
2018-May-18 17:59N 33°45' W 118°11'0 0.0
2018-May-18 17:29N 33°45' W 118°11'0 0.0
2018-May-18 16:59N 33°45' W 118°11'0 0.0
2018-May-18 16:29N 33°45' W 118°11'0 0.0
2018-May-18 15:58N 33°45' W 118°11'0 0.0
2018-May-18 15:28N 33°45' W 118°11'0 0.0
2018-May-18 14:58N 33°45' W 118°11'0 0.0
2018-May-18 14:28N 33°45' W 118°11'511.3
2018-May-18 14:00N 33°42' W 118°06'513.8 170 / 51019.310.8 17.015.416.4
2018-May-18 13:36N 33°45' W 118°11'0 0.0
2018-May-18 13:30N 33°45' W 118°11'0 0.0
2018-May-18 13:00N 33°45' W 118°11'0 0.1
2018-May-18 12:30N 33°45' W 118°11'1 1.8
2018-May-18 12:00N 33°44' W 118°11'5 9.8
2018-May-18 11:31N 33°39' W 118°10'4 7.7
2018-May-18 11:01N 33°36' W 118°09'4 7.6
2018-May-18 10:30N 33°32' W 118°08'14 6.9
2018-May-18 08:33N 33°19' W 118°03'0 6.9
2018-May-18 08:30N 33°19' W 118°02'3 6.0
2018-May-18 08:00N 33°16' W 118°01'4 7.2
2018-May-18 07:30N 33°13' W 117°60'4 7.4
2018-May-18 07:00N 33°09' W 117°58'4 7.3
2018-May-18 06:29N 33°06' W 117°57'3 7.2
2018-May-18 06:00N 33°02' W 117°55'4 7.3
2018-May-18 05:30N 32°59' W 117°54'4 7.3
2018-May-18 05:00N 32°56' W 117°52'4 7.4
2018-May-18 04:30N 32°52' W 117°51'4 7.3
2018-May-18 04:00N 32°49' W 117°49'4 7.6
2018-May-18 03:30N 32°45' W 117°48'4 7.7
2018-May-18 03:00N 32°41' W 117°46'4 7.8
2018-May-18 02:30N 32°38' W 117°44'4 7.5
2018-May-18 02:00N 32°34' W 117°43'4 7.4
2018-May-18 01:30N 32°31' W 117°41'4 7.6
2018-May-18 01:00N 32°27' W 117°40'4 7.9
2018-May-18 00:30N 32°24' W 117°37'4 7.9
2018-May-18 00:00N 32°20' W 117°35'5535.3
2018-May-18 00:00N 32°18' W 117°30'52 4.3 270 / 221018.310.8 17.013.716.4
2018-May-17 12:00N 31°30' W 117°54'5 1.7 320 / 251018.310.8 16.012.716.7
2018-May-17 09:00N 31°30' W 117°48'54 7.7 330 / 251018.310.8 16.012.716.0
2018-May-17 02:00N 31°48' W 116°48'8 0.6 330 / 201018.310.8 17.015.415.0
2018-May-16 12:00N 31°54' W 116°54'21 7.1 310 / 101020.310.8 16.012.716.4
2018-May-16 09:00N 32°00' W 117°18'2112.8 310 / 161020.310.8 16.012.717.0
2018-May-16 07:22N 32°14' W 117°36'710.7
2018-May-16 06:45N 32°20' W 117°39'311.0
2018-May-16 06:30N 32°22' W 117°41'611.0
2018-May-16 06:00N 32°27' W 117°44'510.8
2018-May-16 05:30N 32°32' W 117°47'510.5
2018-May-16 05:00N 32°37' W 117°50'510.5
2018-May-16 04:30N 32°41' W 117°53'510.5
2018-May-16 04:00N 32°46' W 117°56'510.3
2018-May-16 03:30N 32°51' W 117°58'510.1
2018-May-16 03:00N 32°55' W 118°01'510.4
2018-May-16 02:29N 33°00' W 118°04'510.5
2018-May-16 02:00N 33°05' W 118°06'810.9
2018-May-16 01:16N 33°12' W 118°11'410.9
2018-May-16 00:53N 33°15' W 118°13'8 0.8
2018-May-15 15:37N 33°21' W 118°19'0 0.0
2018-May-15 15:30N 33°21' W 118°19'14 4.3
2018-May-15 12:09N 33°08' W 118°13'110.2
2018-May-15 12:01N 33°06' W 118°13'12733.9
2018-May-15 12:00N 33°00' W 118°00'5 4.9 300 / 151019.310.8 16.012.716.0
2018-May-15 11:03N 32°59' W 118°05'0 9.6
2018-May-15 11:00N 32°59' W 118°05'5 9.0
2018-May-15 10:30N 32°54' W 118°03'5 9.2
2018-May-15 09:57N 32°50' W 118°02'4 8.9
2018-May-15 09:31N 32°46' W 118°01'713.1
2018-May-15 09:00N 32°42' W 117°54'222.5 310 / 171019.310.8 15.011.616.0
2018-May-15 08:53N 32°43' W 117°57'3 7.1
2018-May-15 08:30N 32°45' W 117°54'4 7.3
2018-May-15 08:01N 32°49' W 117°54'4 7.2
2018-May-15 07:30N 32°52' W 117°55'4 7.2
2018-May-15 07:01N 32°56' W 117°56'4 7.3
2018-May-15 06:30N 32°59' W 117°58'4 7.2
2018-May-15 06:01N 33°03' W 117°59'4 7.1
2018-May-15 05:30N 33°06' W 118°01'4 7.3
2018-May-15 04:59N 33°09' W 118°02'510.5
2018-May-15 04:31N 33°14' W 118°04'1711.1
2018-May-15 02:56N 33°31' W 118°11'511.0
2018-May-15 02:30N 33°35' W 118°13'510.5
2018-May-15 02:00N 33°40' W 118°12'5 9.1
2018-May-15 01:30N 33°45' W 118°11'0 0.6
2018-May-15 00:57N 33°45' W 118°11'0 0.0
2018-May-15 00:30N 33°45' W 118°11'0 0.0
2018-May-15 00:00N 33°45' W 118°11'0 0.0
2018-May-14 23:29N 33°45' W 118°11'0 0.0
2018-May-14 22:59N 33°45' W 118°11'0 0.0
2018-May-14 22:29N 33°45' W 118°11'0 0.0
2018-May-14 21:59N 33°45' W 118°11'0 0.0
2018-May-14 21:28N 33°45' W 118°11'0 0.0
2018-May-14 20:58N 33°45' W 118°11'0 0.0
2018-May-14 16:20N 33°45' W 118°11'0 0.0
2018-May-14 14:56N 33°45' W 118°11'0 0.0
2018-May-14 14:28N 33°45' W 118°11'511.0
2018-May-14 14:00N 33°42' W 118°06'543.4 090 / 41018.310.8 16.014.416.4
2018-May-14 13:52N 33°45' W 118°11'0 0.0
2018-May-14 13:28N 33°45' W 118°11'0 0.0
2018-May-14 12:55N 33°45' W 118°11'0 0.2
2018-May-14 12:30N 33°45' W 118°11'1 1.6
2018-May-14 12:00N 33°44' W 118°11'  

Dump ship's entire track history